Time;durP1;ratioP1;P1;durP2;ratioP2;P2;SDS_P1;SDS_P2;PMS_P1;PMS_P2;Temp;Humidity;BMP_temperature;BMP_pressure;BME280_temperature;BME280_humidity;BME280_pressure;Samples;Min_cycle;Max_cycle;Signal;HPM_P1;HPM_P2
2021/11/28 00:01:37;;;;;;;;;;;23.30;52.70;;;;;;1614638;73;1931;-66
2021/11/28 00:03:39;;;;;;;;;;;23.20;52.70;;;;;;1607862;72;702;-67
2021/11/28 00:05:42;;;;;;;;;;;23.20;52.70;;;;;;1603748;73;1188;-67
2021/11/28 00:07:51;;;;;;;;;;;23.20;52.70;;;;;;1612496;72;870;-67
2021/11/28 00:14:16;;;;;;;;;;;23.30;52.90;;;;;;1525371;77;1144;-66
2021/11/28 00:16:18;;;;;;;;;;;23.20;52.80;;;;;;1524350;77;1162;-67
2021/11/28 00:18:19;;;;;;;;;;;23.20;52.80;;;;;;1526597;77;816;-66
2021/11/28 00:20:21;;;;;;;;;;;23.20;52.70;;;;;;1558271;75;1918;-66
2021/11/28 00:22:23;;;;;;;;;;;23.30;52.80;;;;;;1597916;72;779;-66
2021/11/28 00:24:25;;;;;;;;;;;23.30;52.80;;;;;;1595026;72;1186;-65
2021/11/28 00:26:27;;;;;;;;;;;23.30;52.80;;;;;;1592648;73;784;-63
2021/11/28 00:28:29;;;;;;;;;;;23.30;52.80;;;;;;1594626;73;766;-63
2021/11/28 00:30:31;;;;;;;;;;;23.20;52.70;;;;;;1590721;73;757;-65
2021/11/28 00:32:33;;;;;;;;;;;23.20;52.70;;;;;;1600166;73;683;-66
2021/11/28 00:34:34;;;;;;;;;;;23.20;52.70;;;;;;1603714;72;1119;-66
2021/11/28 00:36:36;;;;;;;;;;;23.20;52.70;;;;;;1601175;73;726;-66
2021/11/28 00:38:38;;;;;;;;;;;23.30;52.70;;;;;;1599217;73;705;-65
2021/11/28 00:40:40;;;;;;;;;;;23.30;52.70;;;;;;1601566;73;1937;-66
2021/11/28 00:42:42;;;;;;;;;;;23.30;52.60;;;;;;1597256;72;755;-66
2021/11/28 00:44:44;;;;;;;;;;;23.20;52.50;;;;;;1598609;73;1195;-65
2021/11/28 00:46:46;;;;;;;;;;;23.20;52.50;;;;;;1596794;73;771;-65
2021/11/28 00:48:48;;;;;;;;;;;23.20;52.60;;;;;;1597698;73;779;-66
2021/11/28 00:50:53;;;;;;;;;;;23.30;52.60;;;;;;1597740;73;684;-66
2021/11/28 00:52:54;;;;;;;;;;;23.20;52.60;;;;;;1600394;72;1687;-65
2021/11/28 00:54:56;;;;;;;;;;;23.20;52.60;;;;;;1602335;72;1155;-66
2021/11/28 00:56:58;;;;;;;;;;;23.30;52.70;;;;;;1605332;73;802;-65
2021/11/28 00:59:00;;;;;;;;;;;23.20;52.60;;;;;;1599614;73;938;-63
2021/11/28 01:01:02;;;;;;;;;;;23.20;52.60;;;;;;1599221;73;1930;-66
2021/11/28 01:03:04;;;;;;;;;;;23.20;52.60;;;;;;1598817;72;740;-65
2021/11/28 01:05:06;;;;;;;;;;;23.20;52.60;;;;;;1597278;73;1174;-64
2021/11/28 01:07:08;;;;;;;;;;;23.20;52.60;;;;;;1598042;73;843;-65
2021/11/28 01:09:10;;;;;;;;;;;23.20;52.60;;;;;;1596870;73;743;-66
2021/11/28 01:11:12;;;;;;;;;;;23.20;52.60;;;;;;1605528;72;791;-65
2021/11/28 01:13:17;;;;;;;;;;;23.20;52.70;;;;;;1570491;73;672;-65
2021/11/28 01:15:19;;;;;;;;;;;23.20;52.70;;;;;;1599781;72;1169;-67
2021/11/28 01:17:21;;;;;;;;;;;23.20;52.80;;;;;;1605333;72;743;-68
2021/11/28 01:19:23;;;;;;;;;;;23.20;52.70;;;;;;1607943;72;704;-65
2021/11/28 01:21:25;;;;;;;;;;;23.30;52.90;;;;;;1602572;72;1940;-65
2021/11/28 01:23:27;;;;;;;;;;;23.20;52.80;;;;;;1598125;72;797;-65
2021/11/28 01:25:28;;;;;;;;;;;23.20;52.90;;;;;;1574137;74;1144;-66
2021/11/28 01:27:30;;;;;;;;;;;23.20;52.80;;;;;;1597170;73;924;-65
2021/11/28 01:29:32;;;;;;;;;;;23.30;52.90;;;;;;1597737;73;878;-65
2021/11/28 01:31:34;;;;;;;;;;;23.20;52.80;;;;;;1600556;73;714;-63
2021/11/28 01:33:36;;;;;;;;;;;23.20;52.90;;;;;;1597110;72;769;-67
2021/11/28 01:35:38;;;;;;;;;;;23.30;53.00;;;;;;1596240;73;1127;-68
2021/11/28 01:37:40;;;;;;;;;;;23.30;53.00;;;;;;1604777;73;735;-66
2021/11/28 01:39:42;;;;;;;;;;;23.20;52.90;;;;;;1596925;73;718;-65
2021/11/28 01:41:44;;;;;;;;;;;23.30;53.00;;;;;;1599677;72;1918;-66
2021/11/28 01:43:49;;;;;;;;;;;23.20;53.00;;;;;;1603726;72;802;-65
2021/11/28 01:45:50;;;;;;;;;;;23.20;53.00;;;;;;1598485;73;1679;-65
2021/11/28 01:47:53;;;;;;;;;;;23.30;53.10;;;;;;1598231;72;755;-60
2021/11/28 01:49:55;;;;;;;;;;;23.30;53.20;;;;;;1599655;73;819;-64
2021/11/28 01:51:57;;;;;;;;;;;23.30;53.30;;;;;;1598448;73;787;-64
2021/11/28 01:53:58;;;;;;;;;;;23.20;53.20;;;;;;1602329;73;768;-64
2021/11/28 01:56:00;;;;;;;;;;;23.20;53.30;;;;;;1604295;72;1117;-66
2021/11/28 01:58:03;;;;;;;;;;;23.20;53.30;;;;;;1600753;73;1022;-69
2021/11/28 02:00:06;;;;;;;;;;;23.30;53.40;;;;;;1596547;73;707;-65
2021/11/28 02:02:08;;;;;;;;;;;23.20;53.50;;;;;;1598385;73;1929;-66
2021/11/28 02:04:14;;;;;;;;;;;23.30;53.60;;;;;;1599290;72;819;-67
2021/11/28 02:06:15;;;;;;;;;;;23.20;53.50;;;;;;1600941;72;1493;-67
2021/11/28 02:08:17;;;;;;;;;;;23.20;53.50;;;;;;1614977;72;760;-68
2021/11/28 02:10:19;;;;;;;;;;;23.20;53.50;;;;;;1599037;73;733;-66
2021/11/28 02:12:22;;;;;;;;;;;23.30;53.60;;;;;;1600995;73;724;-66
2021/11/28 02:14:24;;;;;;;;;;;23.20;53.60;;;;;;1596424;73;1135;-62
2021/11/28 02:16:26;;;;;;;;;;;23.20;53.60;;;;;;1600382;73;746;-66
2021/11/28 02:18:28;;;;;;;;;;;23.20;53.60;;;;;;1606906;72;775;-66
2021/11/28 02:20:30;;;;;;;;;;;23.20;53.60;;;;;;1601241;72;763;-65
2021/11/28 02:22:32;;;;;;;;;;;23.20;53.70;;;;;;1572403;73;1933;-65
2021/11/28 02:24:34;;;;;;;;;;;23.20;53.60;;;;;;1616848;72;1140;-65
2021/11/28 02:26:36;;;;;;;;;;;23.20;53.60;;;;;;1602218;73;711;-66
2021/11/28 02:28:39;;;;;;;;;;;23.10;53.60;;;;;;1613730;73;693;-66
2021/11/28 02:30:41;;;;;;;;;;;23.20;53.60;;;;;;1620190;73;825;-65
2021/11/28 02:32:43;;;;;;;;;;;23.20;53.60;;;;;;1620391;73;768;-65
2021/11/28 02:34:45;;;;;;;;;;;23.20;53.60;;;;;;1618835;73;1123;-66
2021/11/28 02:36:48;;;;;;;;;;;23.20;53.60;;;;;;1620365;73;781;-66
2021/11/28 02:38:51;;;;;;;;;;;23.20;53.60;;;;;;1619755;73;1996;-67
2021/11/28 02:40:53;;;;;;;;;;;23.20;53.60;;;;;;1620247;73;702;-65
2021/11/28 02:42:55;;;;;;;;;;;23.20;53.60;;;;;;1605173;73;1844;-67
2021/11/28 02:44:57;;;;;;;;;;;23.20;53.70;;;;;;1576393;75;1187;-65
2021/11/28 02:46:58;;;;;;;;;;;23.20;53.80;;;;;;1622614;72;705;-67
2021/11/28 02:49:00;;;;;;;;;;;23.20;53.80;;;;;;1620229;73;737;-65
2021/11/28 02:51:02;;;;;;;;;;;23.20;53.80;;;;;;1620073;73;792;-66
2021/11/28 02:53:05;;;;;;;;;;;23.20;53.80;;;;;;1620111;73;750;-66
2021/11/28 02:55:07;;;;;;;;;;;23.20;53.80;;;;;;1605405;73;1088;-65
2021/11/28 02:57:09;;;;;;;;;;;23.20;53.80;;;;;;1596053;74;818;-66
2021/11/28 02:59:11;;;;;;;;;;;23.20;53.70;;;;;;1607270;74;782;-65
2021/11/28 03:01:14;;;;;;;;;;;23.20;53.80;;;;;;1636201;73;1931;-66
2021/11/28 03:03:16;;;;;;;;;;;23.20;53.80;;;;;;1628190;73;791;-67
2021/11/28 03:05:18;;;;;;;;;;;23.20;53.70;;;;;;1561175;76;1158;-65
2021/11/28 03:07:20;;;;;;;;;;;23.30;53.80;;;;;;1592060;75;690;-66
2021/11/28 03:09:22;;;;;;;;;;;23.20;53.70;;;;;;1591389;75;726;-67
2021/11/28 03:11:24;;;;;;;;;;;23.20;53.70;;;;;;1561092;76;727;-65
2021/11/28 03:13:27;;;;;;;;;;;23.30;53.80;;;;;;1592561;73;791;-67
2021/11/28 03:15:28;;;;;;;;;;;23.20;53.70;;;;;;1563903;74;1164;-67
2021/11/28 03:17:30;;;;;;;;;;;23.20;53.70;;;;;;1586533;74;790;-67
2021/11/28 03:19:32;;;;;;;;;;;23.20;53.70;;;;;;1615348;73;746;-66
2021/11/28 03:21:34;;;;;;;;;;;23.20;53.80;;;;;;1607953;72;1929;-66
2021/11/28 03:23:36;;;;;;;;;;;23.20;53.80;;;;;;1611148;72;734;-67
2021/11/28 03:25:38;;;;;;;;;;;23.20;53.80;;;;;;1610832;73;1146;-68
2021/11/28 03:27:40;;;;;;;;;;;23.20;53.70;;;;;;1612583;72;774;-67
2021/11/28 03:29:42;;;;;;;;;;;23.20;53.80;;;;;;1609762;72;780;-70
2021/11/28 03:31:45;;;;;;;;;;;23.20;53.90;;;;;;1599509;72;1087;-70
2021/11/28 03:33:47;;;;;;;;;;;23.30;53.90;;;;;;1609911;72;762;-70
2021/11/28 03:35:49;;;;;;;;;;;23.20;53.90;;;;;;1609289;73;1127;-69
2021/11/28 03:37:51;;;;;;;;;;;23.20;54.00;;;;;;1609988;72;737;-70
2021/11/28 03:39:53;;;;;;;;;;;23.30;54.10;;;;;;1612394;72;754;-69
2021/11/28 03:41:56;;;;;;;;;;;23.20;54.00;;;;;;1606726;72;1936;-69
2021/11/28 03:43:58;;;;;;;;;;;23.30;54.10;;;;;;1606847;72;737;-69
2021/11/28 03:46:00;;;;;;;;;;;23.30;54.00;;;;;;1605596;73;1174;-73
2021/11/28 03:48:02;;;;;;;;;;;23.30;54.00;;;;;;1607699;73;788;-70
2021/11/28 03:50:05;;;;;;;;;;;23.30;53.90;;;;;;1607770;72;796;-70
2021/11/28 03:52:07;;;;;;;;;;;23.30;53.90;;;;;;1607761;72;752;-69
2021/11/28 03:54:09;;;;;;;;;;;23.40;53.80;;;;;;1609031;72;790;-68
2021/11/28 03:56:11;;;;;;;;;;;23.40;53.60;;;;;;1598897;72;2102;-66
2021/11/28 03:58:13;;;;;;;;;;;23.50;53.70;;;;;;1570640;74;571;-67
2021/11/28 04:00:15;;;;;;;;;;;23.40;53.40;;;;;;1626535;73;803;-67
2021/11/28 04:02:17;;;;;;;;;;;23.50;53.40;;;;;;1617080;73;1941;-67
2021/11/28 04:04:19;;;;;;;;;;;23.50;53.40;;;;;;1621344;71;745;-67
2021/11/28 04:06:22;;;;;;;;;;;23.50;53.20;;;;;;1612336;72;1121;-67
2021/11/28 04:08:24;;;;;;;;;;;23.50;53.10;;;;;;1609764;74;752;-68
2021/11/28 04:10:26;;;;;;;;;;;23.60;53.10;;;;;;1587292;74;773;-66
2021/11/28 04:12:28;;;;;;;;;;;23.50;53.00;;;;;;1609777;74;779;-66
2021/11/28 04:14:29;;;;;;;;;;;23.60;53.00;;;;;;1608839;74;777;-66
2021/11/28 04:16:32;;;;;;;;;;;23.60;52.90;;;;;;1610285;72;1089;-67
2021/11/28 04:18:34;;;;;;;;;;;23.60;52.80;;;;;;1593443;74;765;-66
2021/11/28 04:20:35;;;;;;;;;;;23.60;52.70;;;;;;1597279;74;776;-66
2021/11/28 04:22:37;;;;;;;;;;;23.60;52.60;;;;;;1595542;74;1934;-68
2021/11/28 04:24:39;;;;;;;;;;;23.60;52.60;;;;;;1607763;74;681;-66
2021/11/28 04:26:41;;;;;;;;;;;23.60;52.60;;;;;;1582626;75;739;-66
2021/11/28 04:28:43;;;;;;;;;;;23.60;52.40;;;;;;1582325;75;724;-66
2021/11/28 04:30:45;;;;;;;;;;;23.70;52.50;;;;;;1582329;75;684;-67
2021/11/28 04:32:47;;;;;;;;;;;23.70;52.40;;;;;;1582515;75;781;-68
2021/11/28 04:34:49;;;;;;;;;;;23.70;52.30;;;;;;1600179;72;1128;-66
2021/11/28 04:36:51;;;;;;;;;;;23.70;52.20;;;;;;1610348;74;637;-66
2021/11/28 04:38:52;;;;;;;;;;;23.70;52.10;;;;;;1610283;74;789;-66
2021/11/28 04:40:54;;;;;;;;;;;23.70;52.10;;;;;;1610004;74;766;-66
2021/11/28 04:42:56;;;;;;;;;;;23.70;52.10;;;;;;1609705;74;1930;-66
2021/11/28 04:44:58;;;;;;;;;;;23.70;52.00;;;;;;1610280;72;1166;-67
2021/11/28 04:47:00;;;;;;;;;;;23.70;52.00;;;;;;1609974;74;743;-66
2021/11/28 04:49:02;;;;;;;;;;;23.70;52.00;;;;;;1610294;74;728;-66
2021/11/28 04:51:04;;;;;;;;;;;23.70;52.00;;;;;;1609473;74;721;-67
2021/11/28 04:53:06;;;;;;;;;;;23.70;51.90;;;;;;1609862;74;728;-67
2021/11/28 04:55:08;;;;;;;;;;;23.70;51.90;;;;;;1609531;72;1141;-67
2021/11/28 04:57:10;;;;;;;;;;;23.70;51.80;;;;;;1610157;74;815;-68
2021/11/28 04:59:12;;;;;;;;;;;23.70;51.80;;;;;;1604020;74;816;-68
2021/11/28 05:01:14;;;;;;;;;;;23.70;51.70;;;;;;1599949;74;785;-68
2021/11/28 05:03:16;;;;;;;;;;;23.70;51.70;;;;;;1602708;74;1926;-67
2021/11/28 05:05:18;;;;;;;;;;;23.70;51.70;;;;;;1611426;72;1223;-68
2021/11/28 05:07:20;;;;;;;;;;;23.70;51.80;;;;;;1615761;73;567;-68
2021/11/28 05:09:22;;;;;;;;;;;23.70;51.80;;;;;;1615579;73;739;-68
2021/11/28 05:11:23;;;;;;;;;;;23.70;51.80;;;;;;1615459;73;750;-70
2021/11/28 05:13:25;;;;;;;;;;;23.70;51.70;;;;;;1614690;73;743;-68
2021/11/28 05:15:27;;;;;;;;;;;23.70;51.60;;;;;;1615453;72;1085;-69
2021/11/28 05:17:29;;;;;;;;;;;23.80;51.60;;;;;;1614174;73;732;-69
2021/11/28 05:19:31;;;;;;;;;;;23.80;51.60;;;;;;1587825;75;778;-69
2021/11/28 05:21:33;;;;;;;;;;;23.70;51.60;;;;;;1587523;75;723;-69
2021/11/28 05:23:35;;;;;;;;;;;23.70;51.60;;;;;;1604113;73;1931;-68
2021/11/28 05:25:37;;;;;;;;;;;23.70;51.80;;;;;;1600311;73;1136;-69
2021/11/28 05:27:39;;;;;;;;;;;23.70;51.60;;;;;;1587424;75;805;-68
2021/11/28 05:29:40;;;;;;;;;;;23.70;51.60;;;;;;1587899;75;728;-69
2021/11/28 05:31:42;;;;;;;;;;;23.70;51.50;;;;;;1587920;74;793;-68
2021/11/28 05:33:50;;;;;;;;;;;23.70;51.50;;;;;;1607424;73;753;-67
2021/11/28 05:35:52;;;;;;;;;;;23.70;51.50;;;;;;1615727;72;1121;-68
2021/11/28 05:37:54;;;;;;;;;;;23.70;51.50;;;;;;1615567;73;730;-68
2021/11/28 05:39:56;;;;;;;;;;;23.70;51.50;;;;;;1615098;73;772;-68
2021/11/28 05:41:58;;;;;;;;;;;23.70;51.60;;;;;;1614621;73;880;-69
2021/11/28 05:44:00;;;;;;;;;;;23.70;51.70;;;;;;1614965;73;1892;-67
2021/11/28 05:46:02;;;;;;;;;;;23.70;51.70;;;;;;1610328;72;1162;-69
2021/11/28 05:48:04;;;;;;;;;;;23.70;51.70;;;;;;1615488;73;732;-68
2021/11/28 05:50:06;;;;;;;;;;;23.70;51.70;;;;;;1614949;73;774;-67
2021/11/28 05:52:08;;;;;;;;;;;23.60;51.60;;;;;;1610710;73;697;-68
2021/11/28 05:54:10;;;;;;;;;;;23.60;51.60;;;;;;1615001;73;790;-67
2021/11/28 05:56:12;;;;;;;;;;;23.60;51.50;;;;;;1614982;72;1130;-68
2021/11/28 05:58:13;;;;;;;;;;;23.60;51.50;;;;;;1610721;73;677;-69
2021/11/28 06:00:16;;;;;;;;;;;23.60;51.60;;;;;;1614503;73;745;-67
2021/11/28 06:02:18;;;;;;;;;;;23.60;51.60;;;;;;1614768;73;1916;-69
2021/11/28 06:04:20;;;;;;;;;;;23.60;51.70;;;;;;1610059;73;740;-68
2021/11/28 06:06:22;;;;;;;;;;;23.50;51.70;;;;;;1610709;73;1138;-68
2021/11/28 06:08:24;;;;;;;;;;;23.60;51.70;;;;;;1615063;73;751;-67
2021/11/28 06:10:26;;;;;;;;;;;23.60;51.80;;;;;;1615394;73;724;-68
2021/11/28 06:12:28;;;;;;;;;;;23.60;51.80;;;;;;1605663;73;777;-70
2021/11/28 06:14:30;;;;;;;;;;;23.60;51.80;;;;;;1609815;73;809;-69
2021/11/28 06:16:31;;;;;;;;;;;23.60;51.80;;;;;;1612675;72;1118;-69
2021/11/28 06:18:33;;;;;;;;;;;23.60;51.80;;;;;;1599501;73;793;-68
2021/11/28 06:20:35;;;;;;;;;;;23.60;51.70;;;;;;1615201;73;742;-69
2021/11/28 06:22:37;;;;;;;;;;;23.70;51.80;;;;;;1614611;73;1926;-68
2021/11/28 06:24:39;;;;;;;;;;;23.60;51.70;;;;;;1610074;73;894;-69
2021/11/28 06:26:41;;;;;;;;;;;23.60;51.60;;;;;;1592393;73;703;-66
2021/11/28 06:28:43;;;;;;;;;;;23.60;51.70;;;;;;1615789;73;727;-68
2021/11/28 06:30:45;;;;;;;;;;;23.60;51.60;;;;;;1615679;73;723;-69
2021/11/28 06:32:46;;;;;;;;;;;23.60;51.60;;;;;;1615575;73;695;-67
2021/11/28 06:34:48;;;;;;;;;;;23.60;51.60;;;;;;1615088;72;1125;-67
2021/11/28 06:36:50;;;;;;;;;;;23.50;51.70;;;;;;1615547;73;719;-67
2021/11/28 06:38:52;;;;;;;;;;;23.60;51.70;;;;;;1615734;73;670;-64
2021/11/28 06:40:54;;;;;;;;;;;23.60;51.80;;;;;;1615858;73;701;-69
2021/11/28 06:42:56;;;;;;;;;;;23.60;51.80;;;;;;1614920;73;1940;-69
2021/11/28 06:44:58;;;;;;;;;;;23.50;51.80;;;;;;1615727;72;1156;-70
2021/11/28 06:46:59;;;;;;;;;;;23.50;51.80;;;;;;1615821;73;799;-68
2021/11/28 06:49:01;;;;;;;;;;;23.50;51.80;;;;;;1615505;73;786;-70
2021/11/28 06:51:03;;;;;;;;;;;23.60;51.80;;;;;;1615164;73;715;-70
2021/11/28 06:53:05;;;;;;;;;;;23.50;51.80;;;;;;1615692;73;710;-68
2021/11/28 06:55:07;;;;;;;;;;;23.50;51.80;;;;;;1615056;72;1168;-68
2021/11/28 06:57:09;;;;;;;;;;;23.60;51.80;;;;;;1615897;73;798;-68
2021/11/28 06:59:11;;;;;;;;;;;23.60;51.90;;;;;;1608568;73;768;-68
2021/11/28 07:01:13;;;;;;;;;;;23.50;51.90;;;;;;1602796;74;806;-69
2021/11/28 07:03:14;;;;;;;;;;;23.60;51.80;;;;;;1602924;74;1937;-69
2021/11/28 07:05:16;;;;;;;;;;;23.50;51.80;;;;;;1610909;72;1243;-69
2021/11/28 07:07:18;;;;;;;;;;;23.50;51.80;;;;;;1615518;73;766;-66
2021/11/28 07:09:20;;;;;;;;;;;23.60;51.80;;;;;;1610826;73;785;-61
2021/11/28 07:11:22;;;;;;;;;;;23.60;51.90;;;;;;1606091;73;826;-64
2021/11/28 07:13:25;;;;;;;;;;;23.60;51.70;;;;;;1609916;73;688;-72
2021/11/28 07:15:26;;;;;;;;;;;23.60;51.70;;;;;;1610877;72;1146;-66
2021/11/28 07:17:28;;;;;;;;;;;23.60;51.60;;;;;;1598957;73;689;-65
2021/11/28 07:19:30;;;;;;;;;;;23.60;51.70;;;;;;1592858;73;639;-65
2021/11/28 07:21:33;;;;;;;;;;;23.60;51.60;;;;;;1601412;73;719;-65
2021/11/28 07:23:35;;;;;;;;;;;23.50;51.50;;;;;;1599406;73;1924;-65
2021/11/28 07:25:37;;;;;;;;;;;23.60;51.60;;;;;;1595769;73;1131;-63
2021/11/28 07:27:39;;;;;;;;;;;23.50;51.60;;;;;;1601893;73;774;-64
2021/11/28 07:29:41;;;;;;;;;;;23.60;51.60;;;;;;1615476;73;720;-65
2021/11/28 07:31:43;;;;;;;;;;;23.60;51.60;;;;;;1615812;73;661;-65
2021/11/28 07:33:45;;;;;;;;;;;23.50;51.70;;;;;;1615036;73;802;-65
2021/11/28 07:35:46;;;;;;;;;;;23.50;51.70;;;;;;1605364;73;1063;-65
2021/11/28 07:37:48;;;;;;;;;;;23.50;51.60;;;;;;1615235;73;797;-64
2021/11/28 07:39:50;;;;;;;;;;;23.60;51.50;;;;;;1615770;73;778;-62
2021/11/28 07:41:53;;;;;;;;;;;23.60;51.40;;;;;;1614588;73;724;-64
2021/11/28 07:43:55;;;;;;;;;;;23.50;51.60;;;;;;1615631;73;1928;-62
2021/11/28 07:45:57;;;;;;;;;;;23.60;51.60;;;;;;1610735;73;1169;-63
2021/11/28 07:47:59;;;;;;;;;;;23.60;51.60;;;;;;1615480;73;681;-62
2021/11/28 07:50:01;;;;;;;;;;;23.60;51.60;;;;;;1614966;73;817;-63
2021/11/28 07:52:02;;;;;;;;;;;23.60;51.60;;;;;;1615366;73;771;-62
2021/11/28 07:54:06;;;;;;;;;;;23.60;51.60;;;;;;1614923;73;734;-63
2021/11/28 07:56:08;;;;;;;;;;;23.70;51.70;;;;;;1615667;72;1113;-62
2021/11/28 07:58:10;;;;;;;;;;;23.60;51.60;;;;;;1615373;73;779;-64
2021/11/28 08:00:12;;;;;;;;;;;23.60;51.60;;;;;;1615762;73;774;-65
2021/11/28 08:02:18;;;;;;;;;;;23.60;51.70;;;;;;1615650;73;719;-68
2021/11/28 08:04:17;;;;;;;;;;;23.60;51.80;;;;;;1613055;73;1932;-66
2021/11/28 08:06:19;;;;;;;;;;;23.60;52.10;;;;;;1606828;73;1120;-76
2021/11/28 08:08:21;;;;;;;;;;;23.50;51.00;;;;;;1613085;73;683;-79
2021/11/28 08:10:23;;;;;;;;;;;23.50;48.40;;;;;;1574659;75;816;-76
2021/11/28 08:12:25;;;;;;;;;;;23.40;47.00;;;;;;1574850;75;800;-76
2021/11/28 08:14:27;;;;;;;;;;;23.20;45.70;;;;;;1576902;73;779;-75
2021/11/28 08:16:29;;;;;;;;;;;23.20;44.70;;;;;;1604334;73;1075;-75
2021/11/28 08:18:30;;;;;;;;;;;23.10;43.90;;;;;;1615245;73;883;-76
2021/11/28 08:20:32;;;;;;;;;;;23.00;43.20;;;;;;1609047;73;723;-75
2021/11/28 08:22:34;;;;;;;;;;;22.90;42.40;;;;;;1605842;73;754;-76
2021/11/28 08:24:36;;;;;;;;;;;22.90;42.30;;;;;;1613182;73;1927;-76
2021/11/28 08:26:38;;;;;;;;;;;22.80;41.60;;;;;;1605023;73;1132;-78
2021/11/28 08:28:41;;;;;;;;;;;22.70;41.30;;;;;;1601686;73;784;-78
2021/11/28 08:30:42;;;;;;;;;;;22.60;40.80;;;;;;1597617;73;797;-75
2021/11/28 08:32:45;;;;;;;;;;;22.50;40.50;;;;;;1601202;73;725;-77
2021/11/28 08:34:47;;;;;;;;;;;22.50;40.20;;;;;;1613422;72;1088;-78
2021/11/28 08:36:49;;;;;;;;;;;22.40;39.70;;;;;;1611620;73;1290;-78
2021/11/28 08:38:51;;;;;;;;;;;22.30;39.50;;;;;;1614315;73;734;-76
2021/11/28 08:40:53;;;;;;;;;;;22.20;39.10;;;;;;1610940;73;762;-75
2021/11/28 08:42:55;;;;;;;;;;;22.10;38.90;;;;;;1614584;73;691;-76
2021/11/28 08:44:57;;;;;;;;;;;22.00;38.60;;;;;;1613161;72;1920;-78
2021/11/28 08:46:59;;;;;;;;;;;22.00;38.50;;;;;;1614850;73;696;-76
2021/11/28 08:49:01;;;;;;;;;;;21.90;38.20;;;;;;1608753;73;813;-76
2021/11/28 08:51:05;;;;;;;;;;;21.90;38.00;;;;;;1601071;73;831;-76
2021/11/28 08:53:07;;;;;;;;;;;21.80;37.80;;;;;;1608358;73;820;-76
2021/11/28 08:55:08;;;;;;;;;;;21.70;37.70;;;;;;1605392;73;1164;-76
2021/11/28 08:57:11;;;;;;;;;;;21.70;37.40;;;;;;1610569;73;679;-76
2021/11/28 08:59:13;;;;;;;;;;;21.70;37.40;;;;;;1610198;73;789;-76
2021/11/28 09:01:14;;;;;;;;;;;21.60;37.20;;;;;;1610608;73;681;-76
2021/11/28 09:03:16;;;;;;;;;;;21.60;37.00;;;;;;1599042;73;722;-78
2021/11/28 09:05:19;;;;;;;;;;;21.50;37.00;;;;;;1612382;72;1924;-79
2021/11/28 09:07:21;;;;;;;;;;;21.40;36.70;;;;;;1615334;73;790;-76
2021/11/28 09:09:23;;;;;;;;;;;21.40;36.60;;;;;;1614975;73;727;-76
2021/11/28 09:11:25;;;;;;;;;;;21.30;36.50;;;;;;1614790;73;717;-76
2021/11/28 09:13:27;;;;;;;;;;;21.30;36.50;;;;;;1615165;73;755;-78
2021/11/28 09:15:30;;;;;;;;;;;21.30;36.40;;;;;;1610906;73;1127;-77
2021/11/28 09:17:32;;;;;;;;;;;21.20;36.20;;;;;;1604377;73;954;-79
2021/11/28 09:21:39;;;;;;;;;;;21.10;36.00;;;;;;1615191;73;828;-78
2021/11/28 09:26:00;;;;;;;;;;;21.10;35.90;;;;;;1604753;73;1167;-76
2021/11/28 09:28:05;;;;;;;;;;;21.00;35.60;;;;;;1597692;73;759;-76
2021/11/28 09:30:06;;;;;;;;;;;21.00;35.60;;;;;;1611437;73;1706;-77
2021/11/28 09:32:08;;;;;;;;;;;21.00;35.50;;;;;;1607978;73;728;-79
2021/11/28 09:34:10;;;;;;;;;;;20.90;35.30;;;;;;1613697;73;733;-77
2021/11/28 09:36:12;;;;;;;;;;;20.90;35.50;;;;;;1615218;72;1117;-79
2021/11/28 09:38:14;;;;;;;;;;;20.80;35.40;;;;;;1610764;73;739;-76
2021/11/28 09:40:16;;;;;;;;;;;20.80;35.30;;;;;;1608138;73;715;-78
2021/11/28 09:42:20;;;;;;;;;;;20.80;35.20;;;;;;1614583;73;679;-79
2021/11/28 09:44:22;;;;;;;;;;;20.80;35.20;;;;;;1608894;73;1904;-77
2021/11/28 09:46:24;;;;;;;;;;;20.80;35.10;;;;;;1615230;72;1051;-76
2021/11/28 09:48:26;;;;;;;;;;;20.60;34.80;;;;;;1607641;73;662;-80
2021/11/28 09:50:28;;;;;;;;;;;20.70;35.00;;;;;;1603052;73;740;-76
2021/11/28 09:52:30;;;;;;;;;;;20.60;34.70;;;;;;1605178;73;786;-76
2021/11/28 09:54:32;;;;;;;;;;;20.60;34.70;;;;;;1598420;73;737;-76
2021/11/28 09:56:36;;;;;;;;;;;20.60;34.60;;;;;;1560530;72;228623;-69
2021/11/28 09:58:38;;;;;;;;;;;20.50;34.70;;;;;;1539046;77;719;-72
2021/11/28 10:00:40;;;;;;;;;;;20.50;34.60;;;;;;1538187;77;764;-69
2021/11/28 10:02:42;;;;;;;;;;;20.50;34.50;;;;;;1541974;77;720;-70
2021/11/28 10:04:44;;;;;;;;;;;20.40;34.40;;;;;;1546346;76;1919;-66
2021/11/28 10:06:47;;;;;;;;;;;20.50;34.40;;;;;;1522544;77;1174;-68
2021/11/28 10:08:49;;;;;;;;;;;20.40;34.30;;;;;;1515826;77;808;-69
2021/11/28 10:11:01;;;;;;;;;;;20.30;34.30;;;;;;1523025;77;771;-71
2021/11/28 10:13:03;;;;;;;;;;;20.40;34.20;;;;;;1513912;77;1977;-69
2021/11/28 10:15:06;;;;;;;;;;;20.30;34.20;;;;;;1519857;77;1128;-69
2021/11/28 10:17:08;;;;;;;;;;;20.30;34.20;;;;;;1524537;77;654;-69
2021/11/28 10:19:10;;;;;;;;;;;20.30;34.10;;;;;;1516229;77;712;-69
2021/11/28 10:21:12;;;;;;;;;;;20.30;34.20;;;;;;1517590;77;815;-69
2021/11/28 10:23:14;;;;;;;;;;;20.30;34.10;;;;;;1516049;77;696;-69
2021/11/28 10:25:17;;;;;;;;;;;20.20;34.00;;;;;;1520518;77;1935;-68
2021/11/28 10:27:20;;;;;;;;;;;20.20;33.90;;;;;;1511550;78;1621;-71
2021/11/28 10:29:22;;;;;;;;;;;20.20;33.90;;;;;;1516282;78;809;-71
2021/11/28 10:31:24;;;;;;;;;;;20.10;33.90;;;;;;1523649;77;712;-71
2021/11/28 10:33:26;;;;;;;;;;;20.10;33.90;;;;;;1519400;77;741;-69
2021/11/28 10:35:27;;;;;;;;;;;20.10;33.90;;;;;;1519194;77;1122;-69
2021/11/28 10:37:31;;;;;;;;;;;20.10;33.90;;;;;;1519756;77;782;-69
2021/11/28 10:39:54;;;;;;;;;;;20.00;33.80;;;;;;1515667;77;792;-69
2021/11/28 10:41:56;;;;;;;;;;;20.10;33.90;;;;;;1516007;77;696;-69
2021/11/28 10:43:58;;;;;;;;;;;20.00;33.80;;;;;;1517460;77;1940;-69
2021/11/28 10:46:00;;;;;;;;;;;20.00;33.70;;;;;;1516462;77;1162;-69
2021/11/28 10:48:05;;;;;;;;;;;19.90;33.70;;;;;;1515238;78;778;-69
2021/11/28 10:50:09;;;;;;;;;;;20.00;33.60;;;;;;1515118;78;1516;-69
2021/11/28 10:52:12;;;;;;;;;;;19.90;33.60;;;;;;1517008;77;782;-71
2021/11/28 10:54:21;;;;;;;;;;;20.00;33.60;;;;;;1517320;77;794;-69
2021/11/28 10:56:23;;;;;;;;;;;19.90;33.60;;;;;;1512806;77;1166;-69
2021/11/28 10:58:26;;;;;;;;;;;19.90;33.50;;;;;;1510010;77;785;-69
2021/11/28 11:00:28;;;;;;;;;;;19.90;33.50;;;;;;1509611;77;786;-70
2021/11/28 11:02:31;;;;;;;;;;;19.90;33.50;;;;;;1511954;77;804;-70
2021/11/28 11:04:33;;;;;;;;;;;19.90;33.40;;;;;;1515615;77;1917;-69
2021/11/28 11:06:36;;;;;;;;;;;19.90;33.40;;;;;;1493914;78;1165;-69
2021/11/28 11:08:38;;;;;;;;;;;19.90;33.40;;;;;;1510935;79;730;-68
2021/11/28 11:10:39;;;;;;;;;;;19.90;33.40;;;;;;1513610;77;841;-69
2021/11/28 11:12:44;;;;;;;;;;;19.80;33.30;;;;;;1509158;77;780;-72
2021/11/28 11:14:46;;;;;;;;;;;19.80;33.30;;;;;;1510240;77;869;-69
2021/11/28 11:16:51;;;;;;;;;;;19.80;33.30;;;;;;1513431;77;1124;-69
2021/11/28 11:18:52;;;;;;;;;;;19.80;33.30;;;;;;1518672;77;1467;-69
2021/11/28 11:20:56;;;;;;;;;;;19.80;33.30;;;;;;1519494;77;730;-69
2021/11/28 11:22:57;;;;;;;;;;;19.80;33.30;;;;;;1507363;77;1861;-70
2021/11/28 11:25:01;;;;;;;;;;;19.80;33.30;;;;;;1511076;77;1939;-69
2021/11/28 11:27:07;;;;;;;;;;;19.80;33.20;;;;;;1510057;77;999;-69
2021/11/28 11:29:14;;;;;;;;;;;19.80;33.20;;;;;;1511921;77;759;-71
2021/11/28 11:31:18;;;;;;;;;;;19.80;33.30;;;;;;1495555;79;1484;-71
2021/11/28 11:33:19;;;;;;;;;;;19.80;33.30;;;;;;1511683;77;1862;-71
2021/11/28 11:35:25;;;;;;;;;;;19.80;33.30;;;;;;1511142;78;1212;-69
2021/11/28 11:37:29;;;;;;;;;;;19.80;33.30;;;;;;1541783;77;969;-69
2021/11/28 11:39:32;;;;;;;;;;;19.80;33.30;;;;;;1541963;77;724;-69
2021/11/28 11:41:34;;;;;;;;;;;19.80;33.30;;;;;;1527345;77;617;-72
2021/11/28 11:43:40;;;;;;;;;;;19.80;33.20;;;;;;1511292;79;686;-69
2021/11/28 11:45:39;;;;;;;;;;;19.80;33.20;;;;;;1509887;77;1929;-69
2021/11/28 11:47:41;;;;;;;;;;;19.70;33.20;;;;;;1511240;79;817;-70
2021/11/28 11:49:43;;;;;;;;;;;19.80;33.30;;;;;;1511360;79;699;-69
2021/11/28 11:51:47;;;;;;;;;;;19.70;33.40;;;;;;1536569;77;785;-67
2021/11/28 11:53:49;;;;;;;;;;;19.70;33.20;;;;;;1529605;77;624;-69
2021/11/28 11:55:50;;;;;;;;;;;19.70;33.30;;;;;;1512135;77;1168;-69
2021/11/28 11:57:54;;;;;;;;;;;19.70;33.20;;;;;;1512459;77;785;-69
2021/11/28 12:00:10;;;;;;;;;;;19.70;33.30;;;;;;1515682;77;833;-70
2021/11/28 12:02:12;;;;;;;;;;;19.70;33.20;;;;;;1515444;77;723;-68
2021/11/28 12:04:14;;;;;;;;;;;19.80;36.70;;;;;;1510606;77;643;-68
2021/11/28 12:06:16;;;;;;;;;;;19.70;41.80;;;;;;1493800;78;1960;-68
2021/11/28 12:08:19;;;;;;;;;;;19.80;44.40;;;;;;1526675;77;798;-69
2021/11/28 12:10:28;;;;;;;;;;;19.80;45.90;;;;;;1538888;77;806;-68
2021/11/28 12:12:31;;;;;;;;;;;19.90;46.70;;;;;;1540796;77;718;-70
2021/11/28 12:14:34;;;;;;;;;;;19.90;47.40;;;;;;1540209;77;1716;-67
2021/11/28 12:16:36;;;;;;;;;;;20.00;48.00;;;;;;1538083;76;1138;-69
2021/11/28 12:18:39;;;;;;;;;;;20.00;47.80;;;;;;1542644;76;757;-69